In Rescue
 
Open Full Screen Window  High Contrast Mode
Wind Gusting 00 knots
06
September 18, 2020 9:37 PM CDT
Weather Information
Wind Direction
  170 °
Wind Speed
  06 kt (7 mph)
Wind Gust
  00 kt (0 mph)
Altimeter
30.22 in
Visibility
10 SM
Temperature
10° C
50° F
Dewpoint
06° C
43° F
Humidity
76%
1hr Rain Fall
00.00 in.
24hr Rain Fall
00.00 in.
Sky Condition
Clear
VFR

METAR KBJI 190237Z AUTO 17006KT 10SM CLR 10/06 A3022 RMK AO2 T00970060

FAA Disclaimer: The data displayed is for advisory purposes only and is not to be used for flight planning or operations.